Datos abiertos · Generalitat Valenciana

Viviendas de uso turístico en la Comunitat Valenciana

90.058 viviendas registradas.

Nº VT Nombre Dirección Municipio Provincia Plazas Dormitorios Superficie Alta ▲
CV-VUT0486619-A Vivienda 486619-A CL CONDE DE ALTEA, 29, Pl:03 Pt:IZ (03590) ALTEA ALICANTE/ALACANT 8 4 129.00 m² 18/06/2021
CV-VUT0486621-A Vivienda 486621-A CL PINTA LA, 2, Es:3 Pl:03 Pt:04 (03710) CALP ALICANTE/ALACANT 4 2 74.00 m² 18/06/2021
CV-VUT0486622-A Vivienda 486622-A CL JUMILLA,, Es:3 Pl:00 Pt:37 (03185) TORREVIEJA ALICANTE/ALACANT 4 2 78.00 m² 18/06/2021
CV-VUT0486623-A Vivienda 486623-A PD EMPEDROLA II, 1G, Es:1 Pl:00 Pt:09G (03710) CALP ALICANTE/ALACANT 8 4 195.00 m² 18/06/2021
CV-VUT0486624-A Vivienda 486624-A CL OSCAR WILDE, 2, Es:T Pl:OD Pt:OS (03730) XÀBIA/JÁVEA ALICANTE/ALACANT 6 3 272.00 m² 18/06/2021
CV-VUT0486625-A Vivienda 486625-A CL TORDO, 3, Es:1 Pl:06 Pt:03 (03501) BENIDORM ALICANTE/ALACANT 4 2 79.00 m² 18/06/2021
CV-VUT0486626-A Vivienda 486626-A CL METGE PEREZ MARTORELL, 15, Es:1 Pl:04 Pt:12 (03501) BENIDORM ALICANTE/ALACANT 6 3 84.00 m² 18/06/2021
CV-VUT0486627-A Vivienda 486627-A CL PABLO PICASSO-PLAYA FLAME, 5, Bloque:1 Es:4 Pl:01 Pt:108 (03189) ORIHUELA ALICANTE/ALACANT 6 3 117.00 m² 18/06/2021
CV-VUT0486629-A Vivienda 486629-A CL TEMPLE DE SANT TELM, 10, Es:1 Pl:03 Pt:0D (03700) DÉNIA ALICANTE/ALACANT 6 3 91.00 m² 18/06/2021
CV-VUT0486633-A Vivienda 486633-A AV MARINA BAIXA, 3, Es:2 Pl:05 Pt:B (03509) FINESTRAT ALICANTE/ALACANT 2 1 64.00 m² 18/06/2021
CV-VUT0486634-A Vivienda 486634-A PD MANZANERA, 3, Es:4 Pl:04 Pt:21 (03710) CALP ALICANTE/ALACANT 2 1 109.00 m² 18/06/2021
CV-VUT0050169-V Vivienda 50169-V CL BARRACA, 191, Es:1 Pl:B0 Pt:01 (46011) VALÈNCIA VALENCIA/VALÈNCIA 2 1 52.00 m² 20/06/2021
CV-VUT0050170-V Vivienda 50170-V CL BARRACA, 191, Es:1 Pl:01 Pt:01 (46011) VALÈNCIA VALENCIA/VALÈNCIA 4 2 59.00 m² 20/06/2021
CV-VUT0486660-A CL TEMIST, 17 (03700) DÉNIA ALICANTE/ALACANT 8 4 382.00 m² 21/06/2021
CV-VUT0050136-V PATRICIA RIOS CL CULLERA, 51, Bloque:B Es:1 Pl:02 Pt:05 (46730) GANDIA VALENCIA/VALÈNCIA 7 4 107.00 m² 21/06/2021
CV-VUT0323521-A Vivienda 323521-BM CL METGE PEREZ MARTORELL, 15, Es:1 Pl:04 Pt:11 (03501) BENIDORM ALICANTE/ALACANT 2 1 37.00 m² 21/06/2021
CV-VUT0040926-CS Vivienda 40926-CS AV SERRADAL, 13D, Es:1 Pl:01 Pt:A (12100) CASTELLÓ DE LA PLANA/CASTELLÓN DE LA PLANA CASTELLÓN/CASTELLÓ 4 2 81.00 m² 21/06/2021
CV-VUT0040927-CS Vivienda 40927-CS PD SOLAES, 142, Es:T Pl:OD Pt:OS (12580) BENICARLÓ CASTELLÓN/CASTELLÓ 6 3 82.00 m² 21/06/2021
CV-VUT0040928-CS Vivienda 40928-CS CR ALCOSSEBRE, 15D, Pl:01 Pt:03 (12570) ALCALÀ DE XIVERT CASTELLÓN/CASTELLÓ 4 2 51.00 m² 21/06/2021
CV-VUT0486637-A Vivienda 486637-A CL LOTERIA-URLISA II, 28A, Es:1 Pl:04 Pt:412 (03590) ALTEA ALICANTE/ALACANT 4 2 134.00 m² 21/06/2021
CV-VUT0486638-A Vivienda 486638-A CL HUMEDAL, 2, Es:4 Pl:01 Pt:267 (03185) TORREVIEJA ALICANTE/ALACANT 6 3 95.00 m² 21/06/2021
CV-VUT0486640-A Vivienda 486640-A CL SANT PERE, 31, Es:1 Pl:03 Pt:IZ (03590) ALTEA ALICANTE/ALACANT 4 2 93.00 m² 21/06/2021
CV-VUT0486642-A Vivienda 486642-A AV MESTRAL, 1, Bloque:1 Es:1 Pl:11 Pt:06 (03570) VILA JOIOSA, LA/VILLAJOYOSA ALICANTE/ALACANT 4 2 89.00 m² 21/06/2021
CV-VUT0486643-A Vivienda 486643-A CL SERRELLA, 10, Es:1 Pl:01 Pt:6D (03517) CASTELL DE GUADALEST, EL ALICANTE/ALACANT 1 1 78.00 m² 21/06/2021
CV-VUT0486644-A Vivienda 486644-A AV MARINA ESPAÑOLA, 16, Es:1 Pl:01 Pt:00 (03730) XÀBIA/JÁVEA ALICANTE/ALACANT 3 2 124.00 m² 21/06/2021

Fuente: Portal de Dades Obertes de la Generalitat Valenciana — listado de viviendas vigentes, sincronizado varias veces al día.